Time;durP1;ratioP1;P1;durP2;ratioP2;P2;SDS_P1;SDS_P2;PMS_P1;PMS_P2;Temp;Humidity;BMP_temperature;BMP_pressure;BME280_temperature;BME280_humidity;BME280_pressure;Samples;Min_cycle;Max_cycle;Signal;HPM_P1;HPM_P2
2022/06/22 00:01:46;;;;;;;7.37;4.50;;;15.50;99.90;;;;;;5072495;28;20689;-76
2022/06/22 00:04:18;;;;;;;6.97;4.40;;;15.50;99.90;;;;;;5071178;28;20245;-76
2022/06/22 00:06:54;;;;;;;6.07;4.57;;;15.60;99.90;;;;;;5080870;28;20242;-76
2022/06/22 00:09:28;;;;;;;8.43;5.10;;;15.50;99.90;;;;;;5073670;28;20211;-76
2022/06/22 00:11:57;;;;;;;6.00;5.30;;;15.50;99.90;;;;;;5068982;28;20208;-75
2022/06/22 00:14:29;;;;;;;6.63;5.43;;;15.50;99.90;;;;;;5050936;28;20309;-75
2022/06/22 00:16:58;;;;;;;8.17;5.77;;;15.50;99.90;;;;;;5079908;28;20245;-76
2022/06/22 00:19:33;;;;;;;9.20;6.17;;;15.40;99.90;;;;;;5079157;28;20255;-78
2022/06/22 00:22:01;;;;;;;9.77;5.87;;;15.50;99.90;;;;;;5079717;28;20268;-78
2022/06/22 00:24:40;;;;;;;8.47;6.03;;;15.50;99.90;;;;;;5070682;28;20230;-77
2022/06/22 00:27:19;;;;;;;9.03;6.77;;;15.50;99.90;;;;;;5077411;28;20261;-77
2022/06/22 00:30:15;;;;;;;10.93;6.00;;;15.60;99.90;;;;;;5065107;28;20203;-77
2022/06/22 00:32:58;;;;;;;10.10;6.67;;;15.60;99.90;;;;;;5069873;28;20294;-77
2022/06/22 00:35:47;;;;;;;6.87;5.90;;;15.70;99.90;;;;;;5069861;28;20219;-76
2022/06/22 00:38:18;;;;;;;11.43;7.07;;;15.80;99.90;;;;;;5074268;28;20235;-75
2022/06/22 00:40:53;;;;;;;8.87;6.87;;;15.90;99.90;;;;;;5074856;28;20657;-76
2022/06/22 00:43:25;;;;;;;11.87;6.87;;;15.90;99.90;;;;;;5074062;28;20298;-75
2022/06/22 00:45:56;;;;;;;11.20;6.73;;;16.00;99.90;;;;;;5077814;28;20250;-76
2022/06/22 00:48:30;;;;;;;10.33;6.00;;;16.10;99.90;;;;;;5076434;28;20211;-76
2022/06/22 00:51:04;;;;;;;8.67;6.00;;;16.20;99.90;;;;;;5082145;28;20226;-76
2022/06/22 00:53:37;;;;;;;10.03;6.53;;;16.20;99.90;;;;;;5072964;28;20200;-74
2022/06/22 00:56:19;;;;;;;10.13;6.40;;;16.30;99.90;;;;;;5076715;28;20235;-75
2022/06/22 00:58:56;;;;;;;10.37;5.50;;;16.30;99.90;;;;;;5065159;28;20728;-76
2022/06/22 01:01:33;;;;;;;9.57;4.93;;;16.40;99.90;;;;;;5066891;28;20261;-74
2022/06/22 01:04:06;;;;;;;8.60;4.87;;;16.40;99.90;;;;;;5071901;28;20250;-74
2022/06/22 01:06:42;;;;;;;11.37;5.50;;;16.50;99.90;;;;;;5072916;28;20600;-73
2022/06/22 01:09:16;;;;;;;8.23;4.53;;;16.40;99.90;;;;;;5076653;28;20251;-76
2022/06/22 01:14:44;;;;;;;7.17;4.77;;;16.50;99.90;;;;;;5067074;28;20273;-75
2022/06/22 01:17:21;;;;;;;8.10;4.93;;;16.50;99.90;;;;;;5073327;28;20250;-75
2022/06/22 01:19:58;;;;;;;7.60;4.90;;;16.40;99.90;;;;;;5074776;28;20207;-75
2022/06/22 01:22:44;;;;;;;7.03;5.13;;;16.30;99.90;;;;;;5078612;28;20276;-78
2022/06/22 01:25:37;;;;;;;8.00;5.07;;;16.30;99.90;;;;;;5083497;28;20196;-77
2022/06/22 01:28:07;;;;;;;6.40;5.37;;;16.30;99.90;;;;;;5068600;28;20258;-75
2022/06/22 01:30:38;;;;;;;7.23;5.17;;;16.30;99.90;;;;;;5069195;28;20290;-79
2022/06/22 01:33:08;;;;;;;10.37;5.83;;;16.20;99.90;;;;;;5084645;28;20206;-78
2022/06/22 01:35:39;;;;;;;8.63;6.13;;;16.10;99.90;;;;;;5079032;28;20255;-76
2022/06/22 01:38:19;;;;;;;8.23;6.40;;;16.10;99.90;;;;;;5074860;28;20207;-79
2022/06/22 01:41:00;;;;;;;10.77;6.67;;;16.10;99.90;;;;;;5072811;28;20219;-77
2022/06/22 01:43:33;;;;;;;9.63;6.40;;;16.00;99.90;;;;;;5084407;28;20222;-77
2022/06/22 01:46:11;;;;;;;8.17;7.20;;;16.00;99.90;;;;;;5086755;28;20249;-75
2022/06/22 01:48:44;;;;;;;11.20;7.00;;;16.00;99.90;;;;;;5073267;28;20200;-78
2022/06/22 01:51:22;;;;;;;7.80;7.07;;;15.90;99.90;;;;;;5068055;28;20227;-79
2022/06/22 01:53:55;;;;;;;8.30;6.53;;;15.90;99.90;;;;;;5078953;28;20198;-80
2022/06/22 01:56:29;;;;;;;11.17;6.63;;;15.80;99.90;;;;;;5082683;28;20239;-77
2022/06/22 01:59:08;;;;;;;9.73;7.13;;;15.80;99.90;;;;;;5077154;28;20235;-78
2022/06/22 02:01:42;;;;;;;8.13;7.03;;;15.70;99.90;;;;;;5074265;28;20219;-75
2022/06/22 02:04:23;;;;;;;10.30;7.23;;;15.70;99.90;;;;;;5083802;28;20195;-76
2022/06/22 02:10:20;;;;;;;9.73;7.80;;;15.70;99.90;;;;;;5077918;28;20210;-76
2022/06/22 02:12:59;;;;;;;10.67;7.30;;;15.60;99.90;;;;;;5078865;28;20768;-77
2022/06/22 02:15:50;;;;;;;11.73;7.63;;;15.60;99.90;;;;;;5073946;28;20302;-79
2022/06/22 02:18:24;;;;;;;10.97;7.77;;;15.60;99.90;;;;;;5072885;28;20673;-77
2022/06/22 02:20:53;;;;;;;10.30;7.10;;;15.60;99.90;;;;;;5078627;28;20195;-78
2022/06/22 02:23:26;;;;;;;11.27;7.80;;;15.50;99.90;;;;;;5081442;28;20255;-76
2022/06/22 02:26:17;;;;;;;10.07;7.33;;;15.60;99.90;;;;;;5072863;28;20215;-76
2022/06/22 02:28:47;;;;;;;9.40;8.23;;;15.60;99.90;;;;;;5070231;28;20268;-78
2022/06/22 02:31:17;;;;;;;8.90;8.00;;;15.50;99.90;;;;;;5073669;28;20298;-75
2022/06/22 02:33:50;;;;;;;10.03;7.97;;;15.50;99.90;;;;;;5072077;28;20217;-77
2022/06/22 02:36:19;;;;;;;10.23;8.77;;;15.50;99.90;;;;;;5074527;28;20254;-77
2022/06/22 02:38:49;;;;;;;10.57;7.50;;;15.50;99.90;;;;;;5081622;28;20227;-74
2022/06/22 02:47:17;;;;;;;9.53;7.87;;;15.40;99.90;;;;;;5073235;28;20309;-77
2022/06/22 02:49:50;;;;;;;11.37;8.20;;;15.40;99.90;;;;;;5068041;28;20238;-77
2022/06/22 02:52:18;;;;;;;8.87;7.93;;;15.40;99.90;;;;;;5077485;28;20239;-78
2022/06/22 02:54:50;;;;;;;10.53;8.37;;;15.40;99.90;;;;;;5074290;28;20200;-77
2022/06/22 02:57:33;;;;;;;9.27;7.07;;;15.40;99.90;;;;;;5078737;28;20209;-77
2022/06/22 03:00:02;;;;;;;8.70;7.20;;;15.40;99.90;;;;;;5067350;28;20253;-78
2022/06/22 03:02:31;;;;;;;11.20;7.83;;;15.30;99.90;;;;;;5074219;28;20245;-77
2022/06/22 03:05:01;;;;;;;9.67;8.20;;;15.30;99.90;;;;;;5071399;28;20246;-77
2022/06/22 03:07:30;;;;;;;10.90;7.73;;;15.30;99.90;;;;;;5077839;28;20709;-77
2022/06/22 03:10:02;;;;;;;11.50;7.60;;;15.30;99.90;;;;;;5071437;28;20204;-77
2022/06/22 03:12:30;;;;;;;8.23;7.00;;;15.30;99.90;;;;;;5073715;28;20609;-78
2022/06/22 03:15:01;;;;;;;8.40;6.93;;;15.30;99.90;;;;;;5071123;28;20227;-77
2022/06/22 03:17:34;;;;;;;9.50;7.70;;;15.30;99.90;;;;;;5070953;28;20669;-76
2022/06/22 03:20:07;;;;;;;10.60;8.33;;;15.30;99.90;;;;;;5071157;28;20289;-75
2022/06/22 03:22:39;;;;;;;8.33;7.53;;;15.30;99.90;;;;;;5076725;28;20760;-76
2022/06/22 03:25:14;;;;;;;9.97;8.20;;;15.30;99.90;;;;;;5074312;28;20200;-75
2022/06/22 03:27:48;;;;;;;9.27;8.33;;;15.30;99.90;;;;;;5072305;28;20242;-74
2022/06/22 03:30:20;;;;;;;9.97;9.00;;;15.30;99.90;;;;;;5077453;28;20265;-75
2022/06/22 03:32:55;;;;;;;13.00;8.60;;;15.30;99.90;;;;;;5079593;28;20208;-74
2022/06/22 03:35:29;;;;;;;9.97;8.63;;;15.30;99.90;;;;;;5078641;28;20326;-76
2022/06/22 03:38:02;;;;;;;10.47;8.10;;;15.30;99.90;;;;;;5080673;28;20314;-74
2022/06/22 03:40:36;;;;;;;11.50;8.73;;;15.30;99.90;;;;;;5075641;28;20653;-72
2022/06/22 03:43:09;;;;;;;10.60;8.63;;;15.20;99.90;;;;;;5064982;28;20265;-77
2022/06/22 03:45:42;;;;;;;12.53;9.43;;;15.30;99.90;;;;;;5073810;28;20221;-75
2022/06/22 03:48:18;;;;;;;10.57;9.47;;;15.30;99.90;;;;;;5070826;28;20208;-75
2022/06/22 03:50:52;;;;;;;11.67;9.87;;;15.30;99.90;;;;;;5071273;28;20241;-75
2022/06/22 03:53:24;;;;;;;13.03;10.40;;;15.30;99.90;;;;;;5066568;28;20227;-73
2022/06/22 03:55:58;;;;;;;9.83;8.33;;;15.40;99.90;;;;;;5069273;28;20307;-77
2022/06/22 03:58:27;;;;;;;12.63;9.10;;;15.40;99.90;;;;;;5070751;28;20297;-75
2022/06/22 04:00:56;;;;;;;13.07;9.17;;;15.40;99.90;;;;;;5068542;28;20326;-77
2022/06/22 04:03:26;;;;;;;11.23;9.70;;;15.40;99.90;;;;;;5072010;28;20208;-75
2022/06/22 04:05:57;;;;;;;11.07;9.13;;;15.40;99.90;;;;;;5071915;28;20250;-78
2022/06/22 04:08:29;;;;;;;9.93;8.93;;;15.40;99.90;;;;;;5075156;28;20260;-78
2022/06/22 04:11:01;;;;;;;12.63;9.33;;;15.40;99.90;;;;;;5076265;28;20207;-78
2022/06/22 04:13:35;;;;;;;11.13;9.13;;;15.40;99.90;;;;;;5070861;28;20234;-77
2022/06/22 04:16:08;;;;;;;10.83;9.73;;;15.50;99.90;;;;;;5071162;28;20920;-77
2022/06/22 04:18:41;;;;;;;13.17;10.77;;;15.50;99.90;;;;;;5073961;28;20211;-76
2022/06/22 04:21:14;;;;;;;12.70;9.90;;;15.50;99.90;;;;;;5072341;28;20237;-78
2022/06/22 04:23:47;;;;;;;10.60;9.37;;;15.50;99.90;;;;;;5072782;28;20231;-76
2022/06/22 04:26:21;;;;;;;9.33;8.40;;;15.60;99.90;;;;;;5072871;28;20196;-76
2022/06/22 04:28:54;;;;;;;11.30;9.77;;;15.60;99.90;;;;;;5077583;28;20277;-77
2022/06/22 04:31:27;;;;;;;13.70;9.97;;;15.60;99.90;;;;;;5070081;28;20242;-76
2022/06/22 04:34:00;;;;;;;11.73;10.53;;;15.70;99.90;;;;;;5073141;28;20199;-78
2022/06/22 04:36:34;;;;;;;10.97;9.80;;;15.70;99.90;;;;;;5063098;28;20248;-75
2022/06/22 04:39:07;;;;;;;9.53;8.63;;;15.70;99.90;;;;;;5067240;28;20273;-75
2022/06/22 04:41:38;;;;;;;12.47;9.00;;;15.80;99.90;;;;;;5073910;28;20262;-76
2022/06/22 04:44:19;;;;;;;14.33;9.43;;;15.90;99.90;;;;;;5072527;28;20203;-79
2022/06/22 04:46:50;;;;;;;12.63;8.53;;;15.90;99.90;;;;;;5069527;28;20223;-77
2022/06/22 04:49:24;;;;;;;9.53;8.50;;;16.10;99.90;;;;;;5071283;28;20211;-77
2022/06/22 04:51:56;;;;;;;11.40;8.17;;;16.20;99.90;;;;;;5071152;28;20699;-77
2022/06/22 04:54:28;;;;;;;10.80;7.80;;;16.30;99.90;;;;;;5076160;28;20626;-76
2022/06/22 04:56:58;;;;;;;10.27;7.43;;;16.50;99.90;;;;;;5071477;28;20242;-76
2022/06/22 04:59:27;;;;;;;8.07;7.27;;;16.70;99.90;;;;;;5072222;28;20215;-75
2022/06/22 05:02:01;;;;;;;10.23;6.97;;;16.80;99.90;;;;;;5074608;28;20291;-74
2022/06/22 05:04:34;;;;;;;9.07;7.33;;;17.00;99.90;;;;;;5075949;28;20199;-76
2022/06/22 05:07:07;;;;;;;9.33;6.70;;;17.10;99.90;;;;;;5074100;28;20203;-78
2022/06/22 05:09:41;;;;;;;10.03;5.80;;;17.30;99.90;;;;;;5074509;28;20196;-74
2022/06/22 05:12:13;;;;;;;8.40;5.73;;;17.40;99.90;;;;;;5077537;28;20295;-75
2022/06/22 05:14:43;;;;;;;12.13;5.70;;;17.40;99.90;;;;;;5080174;28;20249;-76
2022/06/22 05:17:17;;;;;;;7.00;5.77;;;17.50;99.90;;;;;;5076012;28;20329;-77
2022/06/22 05:19:53;;;;;;;7.50;5.57;;;17.60;99.90;;;;;;5077562;28;20203;-77
2022/06/22 05:22:21;;;;;;;10.77;5.47;;;17.60;99.90;;;;;;5075170;28;20251;-77
2022/06/22 05:24:53;;;;;;;7.27;5.80;;;17.60;99.90;;;;;;5080910;28;20211;-76
2022/06/22 05:27:25;;;;;;;10.80;6.40;;;17.70;99.90;;;;;;5073627;28;20839;-77
2022/06/22 05:29:57;;;;;;;8.37;5.90;;;17.60;99.90;;;;;;5073713;28;20286;-77
2022/06/22 05:32:34;;;;;;;8.93;5.80;;;17.60;99.90;;;;;;5072352;28;20258;-77
2022/06/22 05:35:10;;;;;;;10.33;5.97;;;17.50;99.90;;;;;;5075704;28;20235;-79
2022/06/22 05:37:41;;;;;;;14.27;5.80;;;17.50;99.90;;;;;;5073814;28;20235;-78
2022/06/22 05:40:11;;;;;;;15.67;6.20;;;17.50;99.90;;;;;;5074398;28;20231;-79
2022/06/22 05:42:40;;;;;;;9.10;6.47;;;17.50;99.90;;;;;;5074010;28;20242;-77
2022/06/22 05:45:15;;;;;;;9.07;6.10;;;17.60;99.90;;;;;;5077732;28;20204;-76
2022/06/22 05:47:45;;;;;;;6.67;5.47;;;17.70;99.90;;;;;;5076563;28;20203;-77
2022/06/22 05:50:26;;;;;;;11.27;6.07;;;17.70;99.90;;;;;;5074797;28;20208;-74
2022/06/22 05:53:00;;;;;;;10.07;6.33;;;17.80;99.90;;;;;;5073801;28;20203;-76
2022/06/22 05:55:36;;;;;;;7.57;5.67;;;17.90;99.90;;;;;;5072885;28;20286;-77
2022/06/22 05:58:11;;;;;;;9.93;6.00;;;17.90;99.90;;;;;;5073849;28;20254;-78
2022/06/22 06:00:45;;;;;;;10.57;6.27;;;17.90;99.90;;;;;;5075123;28;20639;-76
2022/06/22 06:03:27;;;;;;;10.07;6.10;;;17.90;99.90;;;;;;5072274;28;20298;-75
2022/06/22 06:06:01;;;;;;;12.10;6.03;;;18.10;99.90;;;;;;5073381;28;20203;-78
2022/06/22 06:08:37;;;;;;;9.00;5.23;;;18.60;99.90;;;;;;5074677;28;20253;-75
2022/06/22 06:11:07;;;;;;;7.03;4.40;;;19.30;99.90;;;;;;5076877;28;20234;-75
2022/06/22 06:13:38;;;;;;;7.50;4.63;;;20.70;99.90;;;;;;5074352;28;20250;-76
2022/06/22 06:16:12;;;;;;;8.20;3.80;;;21.80;99.90;;;;;;5074823;28;20204;-75
2022/06/22 06:18:45;;;;;;;7.73;3.87;;;23.30;99.90;;;;;;5073376;28;20306;-74
2022/06/22 06:21:18;;;;;;;9.30;3.90;;;24.40;99.90;;;;;;5074507;28;20231;-77
2022/06/22 06:23:52;;;;;;;5.37;3.53;;;25.60;99.90;;;;;;5083039;28;20214;-73
2022/06/22 06:29:35;;;;;;;7.95;3.72;;;26.80;99.90;;;;;;5071727;28;20686;-74
2022/06/22 06:32:26;;;;;;;5.27;3.37;;;26.80;99.90;;;;;;5074624;28;20194;-75
2022/06/22 06:35:00;;;;;;;5.70;3.90;;;26.00;99.90;;;;;;5071917;28;20211;-76
2022/06/22 06:37:44;;;;;;;6.40;3.70;;;25.70;99.90;;;;;;5075889;28;20261;-77
2022/06/22 06:40:15;;;;;;;9.33;4.00;;;25.00;99.90;;;;;;5076153;28;20283;-77
2022/06/22 06:42:50;;;;;;;5.70;3.70;;;24.20;99.90;;;;;;5072967;28;20209;-76
2022/06/22 06:45:24;;;;;;;5.53;3.80;;;23.60;99.90;;;;;;5075205;28;20218;-76
2022/06/22 06:47:57;;;;;;;8.40;4.17;;;22.70;99.90;;;;;;5069592;28;20230;-76
2022/06/22 06:50:32;;;;;;;6.40;4.37;;;22.30;99.90;;;;;;5071111;28;20489;-75
2022/06/22 06:53:10;;;;;;;7.93;4.63;;;21.90;99.90;;;;;;5070881;28;20199;-77
2022/06/22 06:55:44;;;;;;;5.97;4.40;;;21.50;99.90;;;;;;5070648;28;20218;-75
2022/06/22 06:58:18;;;;;;;7.80;4.67;;;21.30;99.90;;;;;;5074091;28;20239;-75
2022/06/22 07:00:48;;;;;;;8.23;4.70;;;21.10;99.90;;;;;;5075439;28;20286;-78
2022/06/22 07:03:22;;;;;;;9.77;5.27;;;21.20;99.90;;;;;;5074049;28;20632;-76
2022/06/22 07:05:51;;;;;;;9.93;4.83;;;21.10;99.90;;;;;;5071278;28;20206;-75
2022/06/22 07:08:25;;;;;;;8.03;4.80;;;20.80;99.90;;;;;;5072031;28;20250;-76
2022/06/22 07:11:16;;;;;;;11.07;5.50;;;20.90;99.90;;;;;;5070556;28;20280;-75
2022/06/22 07:13:49;;;;;;;7.37;5.27;;;20.90;99.90;;;;;;5078680;28;20207;-78
2022/06/22 07:16:25;;;;;;;11.70;5.20;;;21.00;99.90;;;;;;5079246;28;20214;-77
2022/06/22 07:18:57;;;;;;;8.63;5.10;;;20.80;99.90;;;;;;5078575;28;20215;-77
2022/06/22 07:21:33;;;;;;;7.50;5.10;;;20.70;99.90;;;;;;5081166;28;20257;-75
2022/06/22 07:24:08;;;;;;;10.97;5.37;;;20.60;99.90;;;;;;5076723;28;20234;-76
2022/06/22 07:26:47;;;;;;;11.37;5.10;;;20.70;99.90;;;;;;5065078;28;20207;-75
2022/06/22 07:29:26;;;;;;;11.27;4.90;;;20.70;99.90;;;;;;5078553;28;20218;-74
2022/06/22 07:32:00;;;;;;;9.70;5.40;;;20.80;99.90;;;;;;5079780;28;20340;-77
2022/06/22 07:34:35;;;;;;;10.10;4.97;;;20.90;99.90;;;;;;5080255;28;20206;-77
2022/06/22 07:37:13;;;;;;;7.63;5.10;;;21.10;99.90;;;;;;5078716;28;20281;-76
2022/06/22 07:39:50;;;;;;;9.57;5.10;;;21.10;99.90;;;;;;5076940;28;20326;-78
2022/06/22 07:42:18;;;;;;;11.20;4.97;;;21.40;99.90;;;;;;5079162;28;20268;-74
2022/06/22 07:44:48;;;;;;;8.07;5.10;;;21.40;99.90;;;;;;5074946;28;20285;-75
2022/06/22 07:47:33;;;;;;;8.07;4.80;;;21.40;99.90;;;;;;5073273;28;20216;-75
2022/06/22 07:50:07;;;;;;;8.93;4.80;;;21.60;99.90;;;;;;5074139;28;20214;-73
2022/06/22 07:52:40;;;;;;;11.13;5.30;;;21.50;99.90;;;;;;5074278;28;20231;-75
2022/06/22 07:55:31;;;;;;;11.43;5.00;;;21.60;99.90;;;;;;5073661;28;20565;-73
2022/06/22 07:58:28;;;;;;;8.93;4.83;;;21.60;99.90;;;;;;5072205;28;20227;-73
2022/06/22 08:01:05;;;;;;;8.43;4.60;;;21.60;99.90;;;;;;5069042;28;20272;-77
2022/06/22 08:03:38;;;;;;;12.23;5.20;;;21.80;99.90;;;;;;5065949;28;20200;-75
2022/06/22 08:06:10;;;;;;;8.63;4.87;;;21.80;99.90;;;;;;5078113;28;20198;-75
2022/06/22 08:08:44;;;;;;;9.03;4.47;;;21.90;99.90;;;;;;5078897;28;20250;-75
2022/06/22 08:11:20;;;;;;;11.10;4.87;;;21.90;99.90;;;;;;5080129;28;20624;-77
2022/06/22 08:13:52;;;;;;;10.30;5.37;;;22.00;99.90;;;;;;5076515;28;20222;-75
2022/06/22 08:16:24;;;;;;;8.23;4.53;;;22.00;99.90;;;;;;5079069;28;20237;-73
2022/06/22 08:18:54;;;;;;;11.50;4.83;;;22.10;99.90;;;;;;5074759;28;20265;-75
2022/06/22 08:21:24;;;;;;;9.40;5.23;;;22.30;99.90;;;;;;5075154;28;20218;-75
2022/06/22 08:23:54;;;;;;;8.60;4.60;;;22.60;99.90;;;;;;5073347;28;20207;-76
2022/06/22 08:26:27;;;;;;;8.33;4.67;;;22.90;99.90;;;;;;5070438;28;20250;-75
2022/06/22 08:28:56;;;;;;;9.20;4.83;;;23.20;99.90;;;;;;5083285;28;20268;-75
2022/06/22 08:31:28;;;;;;;8.87;5.00;;;23.50;99.90;;;;;;5079883;28;20680;-74
2022/06/22 08:34:00;;;;;;;11.10;5.07;;;23.60;99.90;;;;;;5082980;28;20199;-75
2022/06/22 08:36:32;;;;;;;8.77;4.43;;;23.80;99.90;;;;;;5077845;28;20303;-75
2022/06/22 08:39:04;;;;;;;7.50;4.43;;;23.60;99.90;;;;;;5080040;28;20313;-75
2022/06/22 08:41:44;;;;;;;9.27;4.93;;;24.00;99.90;;;;;;5077660;28;20224;-78
2022/06/22 08:44:22;;;;;;;10.47;4.33;;;24.10;99.90;;;;;;5078760;28;20212;-76
2022/06/22 08:47:17;;;;;;;9.37;4.50;;;23.80;99.90;;;;;;5075758;28;20237;-76
2022/06/22 08:50:07;;;;;;;9.60;4.50;;;23.70;99.90;;;;;;5070749;28;20246;-77
2022/06/22 08:52:47;;;;;;;8.63;4.67;;;23.80;99.90;;;;;;5079137;28;20261;-78
2022/06/22 08:55:54;;;;;;;12.07;5.03;;;23.80;99.90;;;;;;5082597;28;20606;-77
2022/06/22 08:58:39;;;;;;;9.00;4.30;;;23.70;99.90;;;;;;5083338;28;20623;-78
2022/06/22 09:01:17;;;;;;;11.87;5.13;;;23.60;99.90;;;;;;5080445;28;20295;-76
2022/06/22 09:04:08;;;;;;;12.20;4.73;;;23.40;99.90;;;;;;5079572;28;20203;-77
2022/06/22 09:07:04;;;;;;;10.77;4.70;;;23.30;99.90;;;;;;5081885;28;20602;-77
2022/06/22 09:10:09;;;;;;;10.90;4.57;;;23.20;99.90;;;;;;5081615;28;20647;-77
2022/06/22 09:12:53;;;;;;;10.47;4.20;;;22.90;99.90;;;;;;5044120;28;20330;-77
2022/06/22 09:15:43;;;;;;;9.03;4.53;;;22.80;99.90;;;;;;5077179;28;20250;-77
2022/06/22 09:18:27;;;;;;;12.77;5.03;;;22.80;99.90;;;;;;5076521;28;20210;-77
2022/06/22 09:21:05;;;;;;;14.00;5.07;;;22.60;99.90;;;;;;5075887;28;20231;-77
2022/06/22 09:23:40;;;;;;;13.73;4.93;;;22.60;99.90;;;;;;5077743;28;20253;-76
2022/06/22 09:26:19;;;;;;;12.03;5.03;;;22.60;99.90;;;;;;5077530;28;20207;-78
2022/06/22 09:28:59;;;;;;;12.47;4.93;;;22.60;99.90;;;;;;5078088;28;20241;-76
2022/06/22 09:31:57;;;;;;;14.23;5.67;;;22.70;99.90;;;;;;5076903;28;20555;-76
2022/06/22 09:34:46;;;;;;;12.67;4.97;;;22.80;99.90;;;;;;5036704;28;20721;-78
2022/06/22 09:37:30;;;;;;;10.83;4.80;;;22.80;99.90;;;;;;5075803;28;20219;-76
2022/06/22 09:40:41;;;;;;;15.97;5.30;;;23.00;99.90;;;;;;5073941;28;20609;-77
2022/06/22 09:43:41;;;;;;;12.27;5.60;;;23.00;99.90;;;;;;5067286;28;20291;-75
2022/06/22 09:46:42;;;;;;;11.40;5.13;;;23.10;99.90;;;;;;5074362;28;20290;-76
2022/06/22 09:49:39;;;;;;;11.97;5.20;;;23.10;99.90;;;;;;5083489;28;20242;-79
2022/06/22 09:52:20;;;;;;;9.37;5.40;;;23.10;99.90;;;;;;5079274;28;20212;-78
2022/06/22 09:58:38;;;;;;;12.20;5.67;;;22.90;99.90;;;;;;5073656;28;20674;-77
2022/06/22 10:01:17;;;;;;;15.80;6.00;;;22.80;99.90;;;;;;5079995;28;20198;-77
2022/06/22 10:04:14;;;;;;;15.27;5.23;;;22.70;99.90;;;;;;5076941;28;20209;-73
2022/06/22 10:06:58;;;;;;;10.93;6.03;;;22.50;99.90;;;;;;5058865;28;20211;-77
2022/06/22 10:09:52;;;;;;;12.37;5.77;;;22.40;99.90;;;;;;5076717;28;20227;-77
2022/06/22 10:12:55;;;;;;;11.50;5.30;;;22.40;99.90;;;;;;5081735;28;20286;-75
2022/06/22 10:16:05;;;;;;;12.20;5.57;;;22.20;99.90;;;;;;5065679;28;20212;-77
2022/06/22 10:18:52;;;;;;;12.90;5.50;;;22.20;99.90;;;;;;5032920;28;20638;-76
2022/06/22 10:21:34;;;;;;;13.53;5.67;;;22.10;99.90;;;;;;5083133;28;20237;-76
2022/06/22 10:24:19;;;;;;;11.70;5.77;;;22.10;99.90;;;;;;5081082;28;20204;-75
2022/06/22 10:27:02;;;;;;;13.27;6.00;;;22.10;99.90;;;;;;5075921;28;20207;-75
2022/06/22 10:30:09;;;;;;;10.73;5.70;;;22.10;99.90;;;;;;5074301;28;20204;-75
2022/06/22 10:33:11;;;;;;;12.10;5.50;;;22.30;99.90;;;;;;5041575;28;20253;-74
2022/06/22 10:36:10;;;;;;;13.83;5.90;;;22.40;99.90;;;;;;5048339;28;20234;-75
2022/06/22 10:39:03;;;;;;;13.27;5.40;;;22.60;99.90;;;;;;5009740;28;20239;-74
2022/06/22 10:45:11;;;;;;;11.80;5.10;;;23.00;99.90;;;;;;5066340;28;20226;-73
2022/06/22 10:48:08;;;;;;;10.20;5.00;;;23.20;99.90;;;;;;5073615;28;20199;-72
2022/06/22 10:50:45;;;;;;;12.93;5.37;;;23.30;99.90;;;;;;5058979;28;20215;-77
2022/06/22 10:53:41;;;;;;;14.83;5.40;;;23.40;99.90;;;;;;5075501;28;20280;-77
2022/06/22 10:56:24;;;;;;;16.50;5.63;;;23.30;99.90;;;;;;5076836;28;20208;-78
2022/06/22 10:59:12;;;;;;;18.30;5.60;;;23.20;99.90;;;;;;5074105;28;20196;-78
2022/06/22 11:01:55;;;;;;;13.67;5.90;;;23.00;99.90;;;;;;5069140;28;20688;-78
2022/06/22 11:05:00;;;;;;;14.67;6.13;;;22.80;99.90;;;;;;5074130;28;20275;-76
2022/06/22 11:07:53;;;;;;;12.07;5.37;;;22.60;99.90;;;;;;5066477;28;20364;-77
2022/06/22 11:10:45;;;;;;;14.37;5.60;;;22.40;99.90;;;;;;5077204;28;20215;-77
2022/06/22 11:13:37;;;;;;;14.13;5.93;;;22.30;99.90;;;;;;5078315;28;20200;-78
2022/06/22 11:16:31;;;;;;;18.10;5.40;;;22.20;99.90;;;;;;5078398;28;21042;-77
2022/06/22 11:19:30;;;;;;;11.53;5.33;;;22.00;99.90;;;;;;5076789;28;20708;-75
2022/06/22 11:22:19;;;;;;;14.57;5.87;;;21.90;99.90;;;;;;5079488;28;20215;-76
2022/06/22 11:31:21;;;;;;;11.23;5.93;;;21.60;99.90;;;;;;5079593;28;20291;-77
2022/06/22 11:34:05;;;;;;;16.40;6.30;;;21.60;99.90;;;;;;5081068;28;20225;-76
2022/06/22 11:36:47;;;;;;;12.93;6.10;;;21.50;99.90;;;;;;5075943;28;20203;-78
2022/06/22 11:39:50;;;;;;;15.70;6.00;;;21.50;99.90;;;;;;5076986;28;20230;-79
2022/06/22 11:42:33;;;;;;;13.70;6.33;;;21.50;99.90;;;;;;5078501;28;20226;-77
2022/06/22 11:48:22;;;;;;;12.37;6.37;;;21.70;99.90;;;;;;5073332;28;20199;-77
2022/06/22 11:51:15;;;;;;;14.10;6.23;;;21.80;99.90;;;;;;5074942;28;20721;-78
2022/06/22 11:54:08;;;;;;;19.43;6.80;;;21.90;99.90;;;;;;5073464;28;20283;-75
2022/06/22 11:56:48;;;;;;;17.83;6.40;;;22.00;99.90;;;;;;5067409;28;20253;-73
2022/06/22 11:59:31;;;;;;;16.83;7.23;;;22.00;99.90;;;;;;5073267;28;20539;-77
2022/06/22 12:02:23;;;;;;;14.33;7.07;;;22.10;99.90;;;;;;5078250;28;20211;-78
2022/06/22 12:05:12;;;;;;;15.50;6.80;;;22.10;99.90;;;;;;5083131;28;20235;-78
2022/06/22 12:08:16;;;;;;;13.43;7.33;;;22.10;99.90;;;;;;5079728;28;20201;-77
2022/06/22 12:10:50;;;;;;;17.93;7.30;;;22.20;99.90;;;;;;5076597;28;20199;-79
2022/06/22 12:16:50;;;;;;;14.53;7.13;;;22.50;99.90;;;;;;5068344;28;20211;-77
2022/06/22 12:19:32;;;;;;;13.40;7.00;;;22.70;99.90;;;;;;5074767;28;20207;-77
2022/06/22 12:22:16;;;;;;;15.97;7.60;;;22.80;99.90;;;;;;5074644;28;20200;-77
2022/06/22 12:25:01;;;;;;;14.47;7.23;;;23.00;99.90;;;;;;5078967;28;20291;-76
2022/06/22 12:27:31;;;;;;;16.43;7.30;;;23.10;99.90;;;;;;5071789;28;20241;-77
2022/06/22 12:30:25;;;;;;;13.53;7.30;;;23.20;99.90;;;;;;5075210;28;20653;-74
2022/06/22 12:33:00;;;;;;;15.27;7.30;;;23.30;99.90;;;;;;5068331;28;20199;-74
2022/06/22 12:35:39;;;;;;;17.63;7.40;;;23.40;99.90;;;;;;5074055;28;20726;-76
2022/06/22 12:38:17;;;;;;;16.77;7.50;;;23.40;99.90;;;;;;5073874;28;20261;-76
2022/06/22 12:40:57;;;;;;;15.13;7.70;;;23.40;99.90;;;;;;5074459;28;20684;-75
2022/06/22 12:44:05;;;;;;;19.27;7.70;;;23.30;99.90;;;;;;5072963;28;20207;-76
2022/06/22 12:46:47;;;;;;;14.37;7.97;;;23.40;99.90;;;;;;5071454;28;20207;-79
2022/06/22 12:49:32;;;;;;;17.47;7.70;;;23.40;99.90;;;;;;5071101;28;20307;-79
2022/06/22 12:52:03;;;;;;;17.23;7.50;;;23.30;99.90;;;;;;5053976;28;20302;-76
2022/06/22 12:54:37;;;;;;;12.73;7.30;;;23.20;99.90;;;;;;5083394;28;20672;-77
2022/06/22 12:57:13;;;;;;;16.57;7.63;;;23.20;99.90;;;;;;5070432;28;20289;-76
2022/06/22 12:59:48;;;;;;;13.37;7.10;;;23.10;99.90;;;;;;5080836;28;20246;-76
2022/06/22 13:02:18;;;;;;;15.83;8.27;;;23.10;99.90;;;;;;5076150;28;20207;-76
2022/06/22 13:04:51;;;;;;;15.50;8.60;;;23.00;99.90;;;;;;5071179;28;20277;-77
2022/06/22 13:07:20;;;;;;;16.93;8.70;;;22.90;99.90;;;;;;5074250;28;20239;-77
2022/06/22 13:09:50;;;;;;;13.83;8.30;;;22.90;99.90;;;;;;5077155;28;20393;-76
2022/06/22 13:12:25;;;;;;;15.93;8.57;;;22.90;99.90;;;;;;5070281;28;20669;-77
2022/06/22 13:14:59;;;;;;;18.90;9.47;;;22.90;99.90;;;;;;5078380;28;20548;-78
2022/06/22 13:17:38;;;;;;;15.87;8.87;;;22.90;99.90;;;;;;5075848;28;20208;-76
2022/06/22 13:20:30;;;;;;;15.80;9.13;;;22.80;99.90;;;;;;5076105;28;20673;-78
2022/06/22 13:23:04;;;;;;;13.80;8.97;;;22.80;99.90;;;;;;5075749;28;20257;-80
2022/06/22 13:25:38;;;;;;;17.60;9.83;;;22.80;99.90;;;;;;5080296;28;20249;-77
2022/06/22 13:28:19;;;;;;;20.23;9.60;;;22.70;99.90;;;;;;5074805;28;20207;-76
2022/06/22 13:30:52;;;;;;;17.67;9.67;;;22.80;99.90;;;;;;5074964;28;20283;-78
2022/06/22 13:33:29;;;;;;;19.00;10.00;;;22.80;99.90;;;;;;5076581;28;20729;-77
2022/06/22 13:36:07;;;;;;;20.10;10.50;;;22.70;99.90;;;;;;5068497;28;20200;-78
2022/06/22 13:38:56;;;;;;;16.47;10.57;;;22.60;99.90;;;;;;5069399;28;20277;-77
2022/06/22 13:41:38;;;;;;;19.07;11.07;;;22.40;99.90;;;;;;5080931;28;20250;-76
2022/06/22 13:44:30;;;;;;;20.43;11.57;;;22.40;99.90;;;;;;5084827;28;20605;-78
2022/06/22 13:47:27;;;;;;;16.73;10.47;;;22.10;99.90;;;;;;5045878;28;20736;-77
2022/06/22 13:50:17;;;;;;;15.83;8.40;;;21.90;99.90;;;;;;5080392;28;20239;-79
2022/06/22 13:52:50;;;;;;;16.77;7.57;;;21.80;99.90;;;;;;5083440;28;20249;-80
2022/06/22 13:55:43;;;;;;;18.60;6.60;;;21.70;99.90;;;;;;5078233;28;20298;-74
2022/06/22 13:58:17;;;;;;;13.33;5.50;;;21.60;99.90;;;;;;5080062;28;20266;-78
2022/06/22 14:00:54;;;;;;;14.17;5.00;;;21.60;99.90;;;;;;5070687;28;20226;-77
2022/06/22 14:03:31;;;;;;;15.03;5.10;;;21.50;99.90;;;;;;5075839;28;20238;-78
2022/06/22 14:06:03;;;;;;;14.70;5.70;;;21.30;99.90;;;;;;5074947;28;20211;-76
2022/06/22 14:08:59;;;;;;;13.03;5.87;;;21.10;99.90;;;;;;5075293;28;20260;-78
2022/06/22 14:11:36;;;;;;;13.10;5.57;;;21.10;99.90;;;;;;5074929;28;20227;-74
2022/06/22 14:14:14;;;;;;;14.80;6.10;;;21.10;99.90;;;;;;5074738;28;20207;-79